createdAt,value
2022-08-23T00:01:26.324Z,24.99
2022-08-23T00:03:59.231Z,24.73
2022-08-23T00:06:27.490Z,24.87
2022-08-23T00:08:57.007Z,24.93
2022-08-23T00:11:26.991Z,25.02
2022-08-23T00:13:54.271Z,24.93
2022-08-23T00:16:21.732Z,24.70
2022-08-23T00:18:49.441Z,24.24
2022-08-23T00:21:17.055Z,23.87
2022-08-23T00:23:44.114Z,23.92
2022-08-23T00:26:11.045Z,23.96
2022-08-23T00:28:38.298Z,23.67
2022-08-23T00:31:05.436Z,23.53
2022-08-23T00:33:32.415Z,23.52
2022-08-23T00:35:59.284Z,23.34
2022-08-23T00:38:33.751Z,23.37
2022-08-23T00:41:02.480Z,23.24
2022-08-23T00:44:02.496Z,23.10
2022-08-23T00:47:02.996Z,23.39
2022-08-23T00:49:31.416Z,23.22
2022-08-23T00:52:23.017Z,23.11
2022-08-23T00:54:50.969Z,23.24
2022-08-23T00:57:19.388Z,23.17
2022-08-23T00:59:46.582Z,23.17
2022-08-23T01:02:14.432Z,23.42
2022-08-23T01:04:49.844Z,23.34
2022-08-23T01:07:23.874Z,23.30
2022-08-23T01:09:53.546Z,23.22
2022-08-23T01:12:32.212Z,22.90
2022-08-23T01:15:06.697Z,22.99
2022-08-23T01:17:41.731Z,23.26
2022-08-23T01:20:15.700Z,23.39
2022-08-23T01:22:53.760Z,23.61
2022-08-23T01:25:22.036Z,23.21
2022-08-23T01:27:49.847Z,23.02
2022-08-23T01:30:21.257Z,23.03
2022-08-23T01:32:51.986Z,22.93
2022-08-23T01:37:53.001Z,22.45
2022-08-23T01:40:20.435Z,22.70
2022-08-23T01:42:50.603Z,22.94
2022-08-23T01:45:17.554Z,23.05
2022-08-23T01:47:44.910Z,23.07
2022-08-23T01:50:13.039Z,23.23
2022-08-23T01:52:47.259Z,23.20
2022-08-23T01:55:17.938Z,23.12
2022-08-23T01:57:48.420Z,23.11
2022-08-23T02:00:17.641Z,23.09
2022-08-23T02:02:47.201Z,22.94
2022-08-23T02:05:14.757Z,22.85
2022-08-23T02:07:47.605Z,22.76
2022-08-23T02:10:16.717Z,22.76
2022-08-23T02:12:44.019Z,22.93
2022-08-23T02:15:15.227Z,22.40
2022-08-23T02:17:44.402Z,22.66
2022-08-23T02:20:12.038Z,22.68
2022-08-23T02:22:39.703Z,22.82
2022-08-23T02:25:07.512Z,23.01
2022-08-23T02:27:34.661Z,23.08
2022-08-23T02:30:02.030Z,23.30
2022-08-23T02:32:29.899Z,23.28
2022-08-23T02:35:05.032Z,23.16
2022-08-23T02:37:34.949Z,22.79
2022-08-23T02:40:02.369Z,22.69
2022-08-23T02:42:29.528Z,22.62
2022-08-23T02:44:56.335Z,22.41
2022-08-23T02:47:23.885Z,22.41
2022-08-23T02:50:07.358Z,22.17
2022-08-23T02:52:34.738Z,22.45
2022-08-23T02:55:01.492Z,22.34
2022-08-23T02:57:28.426Z,22.23
2022-08-23T03:00:01.218Z,22.29
2022-08-23T03:02:28.144Z,22.27
2022-08-23T03:04:55.085Z,22.15
2022-08-23T03:07:21.891Z,21.74
2022-08-23T03:09:48.685Z,21.97
2022-08-23T03:12:15.828Z,22.12
2022-08-23T03:14:50.011Z,21.94
2022-08-23T03:17:16.806Z,21.86
2022-08-23T03:19:43.943Z,21.79
2022-08-23T03:22:10.631Z,21.86
2022-08-23T03:24:37.597Z,22.11
2022-08-23T03:27:05.166Z,21.83
2022-08-23T03:29:32.320Z,21.65
2022-08-23T03:32:01.967Z,21.77
2022-08-23T03:34:32.381Z,21.72
2022-08-23T03:36:59.322Z,21.87
2022-08-23T03:39:26.460Z,21.76
2022-08-23T03:41:54.633Z,21.88
2022-08-23T03:44:21.392Z,21.56
2022-08-23T03:46:48.630Z,21.53
2022-08-23T03:49:15.453Z,21.67
2022-08-23T03:51:51.943Z,21.84
2022-08-23T03:54:18.720Z,22.01
2022-08-23T03:56:59.793Z,22.16
2022-08-23T03:59:29.904Z,21.98
2022-08-23T04:01:57.091Z,22.02
2022-08-23T04:04:26.091Z,21.81
2022-08-23T04:07:13.176Z,22.06
2022-08-23T04:09:40.133Z,21.78
2022-08-23T04:12:17.505Z,21.89
2022-08-23T04:14:45.793Z,22.03
2022-08-23T04:17:15.616Z,22.04
2022-08-23T04:19:42.723Z,21.77
2022-08-23T04:22:14.175Z,21.85
2022-08-23T04:24:42.470Z,21.76
2022-08-23T04:27:09.830Z,21.68
2022-08-23T04:29:39.127Z,21.81
2022-08-23T04:32:07.887Z,21.44
2022-08-23T04:34:45.337Z,21.68
2022-08-23T04:37:14.611Z,21.89
2022-08-23T04:40:00.615Z,21.86
2022-08-23T04:42:34.310Z,21.87
2022-08-23T04:45:01.601Z,21.94
2022-08-23T04:47:28.434Z,21.98
2022-08-23T04:49:58.439Z,21.97
2022-08-23T04:52:25.318Z,21.99
2022-08-23T04:54:52.653Z,21.58
2022-08-23T04:57:35.883Z,21.44
2022-08-23T05:00:03.188Z,21.69
2022-08-23T05:02:30.176Z,21.97
2022-08-23T05:04:56.978Z,22.02
2022-08-23T05:07:33.794Z,22.15
2022-08-23T05:10:12.913Z,21.94
2022-08-23T05:12:42.728Z,21.88
2022-08-23T05:15:10.487Z,22.09
2022-08-23T05:17:40.388Z,22.09
2022-08-23T05:20:10.254Z,22.15
2022-08-23T05:22:39.754Z,22.00
2022-08-23T05:25:52.555Z,21.90
2022-08-23T05:28:35.306Z,21.91
2022-08-23T05:31:11.591Z,21.61
2022-08-23T05:33:46.764Z,21.47
2022-08-23T05:36:19.388Z,21.62
2022-08-23T05:38:49.542Z,21.42
2022-08-23T05:41:17.306Z,21.34
2022-08-23T05:43:46.123Z,21.59
2022-08-23T05:46:15.355Z,21.91
2022-08-23T05:48:53.223Z,22.15
2022-08-23T05:51:28.628Z,23.02
2022-08-23T05:53:58.977Z,24.78
2022-08-23T05:56:31.650Z,25.79
2022-08-23T05:59:01.085Z,27.25
2022-08-23T06:01:30.348Z,29.01
2022-08-23T06:04:04.315Z,29.67
2022-08-23T06:06:36.788Z,30.86
2022-08-23T06:09:07.276Z,31.77
2022-08-23T06:11:34.528Z,31.83
2022-08-23T06:14:03.335Z,31.03
2022-08-23T06:16:35.638Z,31.07
2022-08-23T06:19:04.323Z,30.12
2022-08-23T06:21:56.888Z,31.07
2022-08-23T06:24:27.493Z,31.64
2022-08-23T06:27:14.523Z,32.76
2022-08-23T06:29:42.364Z,33.27
2022-08-23T06:32:32.229Z,32.88
2022-08-23T06:35:39.490Z,33.24
2022-08-23T06:38:29.035Z,33.67
2022-08-23T06:41:18.826Z,34.39
2022-08-23T06:44:08.296Z,34.97
2022-08-23T06:46:56.404Z,34.33
2022-08-23T06:49:24.342Z,34.94
2022-08-23T06:51:53.411Z,34.68
2022-08-23T06:54:31.517Z,35.60
2022-08-23T06:57:21.978Z,35.72
2022-08-23T07:00:27.030Z,33.95
2022-08-23T07:03:09.676Z,33.79
2022-08-23T07:05:54.946Z,32.98
2022-08-23T07:08:24.944Z,33.05
2022-08-23T07:10:51.644Z,32.06
2022-08-23T07:13:18.777Z,31.68
2022-08-23T07:15:45.862Z,31.72
2022-08-23T07:18:18.223Z,30.84
2022-08-23T07:20:44.958Z,31.36
2022-08-23T07:23:11.961Z,30.74
2022-08-23T07:25:40.507Z,30.51
2022-08-23T07:28:11.734Z,30.43
2022-08-23T07:30:43.312Z,29.77
2022-08-23T07:33:12.964Z,29.60
2022-08-23T07:36:00.116Z,29.48
2022-08-23T07:38:28.958Z,28.88
2022-08-23T07:40:59.129Z,29.48
2022-08-23T07:43:25.869Z,28.42
2022-08-23T07:45:53.424Z,29.33
2022-08-23T07:48:43.322Z,29.36
2022-08-23T07:51:15.486Z,29.51
2022-08-23T07:53:45.883Z,29.21
2022-08-23T07:56:17.006Z,29.69
2022-08-23T07:59:14.340Z,29.53
2022-08-23T08:01:53.733Z,29.67
2022-08-23T08:04:22.428Z,29.41
2022-08-23T08:07:10.603Z,29.33
2022-08-23T08:09:42.253Z,29.35
2022-08-23T08:12:11.093Z,29.14
2022-08-23T08:14:42.148Z,29.46
2022-08-23T08:17:09.816Z,29.42
2022-08-23T08:19:59.040Z,30.32
2022-08-23T08:22:37.972Z,30.00
2022-08-23T08:25:11.110Z,29.58
2022-08-23T08:27:40.426Z,29.79
2022-08-23T08:30:08.594Z,29.82
2022-08-23T08:32:36.540Z,29.87
2022-08-23T08:35:06.897Z,30.12
2022-08-23T08:37:33.872Z,29.42
2022-08-23T08:40:02.774Z,29.89
2022-08-23T08:42:54.336Z,29.99
2022-08-23T08:45:26.403Z,30.03
2022-08-23T08:48:13.536Z,30.48
2022-08-23T08:50:56.852Z,30.18
2022-08-23T08:53:27.452Z,30.68
2022-08-23T08:56:21.130Z,30.17
2022-08-23T08:58:58.487Z,30.52
2022-08-23T09:01:26.510Z,30.67
2022-08-23T09:03:53.505Z,30.17
2022-08-23T09:06:31.466Z,30.12
2022-08-23T09:09:08.897Z,30.46
2022-08-23T09:11:51.441Z,30.43
2022-08-23T09:14:38.889Z,30.92
2022-08-23T09:17:35.962Z,30.34
2022-08-23T09:20:06.126Z,30.90
2022-08-23T09:22:40.508Z,30.13
2022-08-23T09:25:17.090Z,30.68
2022-08-23T09:27:56.575Z,30.38
2022-08-23T09:30:46.357Z,30.47
2022-08-23T09:33:19.077Z,30.53
2022-08-23T09:36:21.199Z,30.51
2022-08-23T09:38:56.617Z,30.96
2022-08-23T09:41:43.739Z,30.97
2022-08-23T09:44:16.878Z,31.63
2022-08-23T09:46:44.158Z,31.28
2022-08-23T09:49:28.022Z,31.40
2022-08-23T09:52:10.150Z,31.21
2022-08-23T09:54:37.215Z,31.09
2022-08-23T09:57:10.403Z,31.16
2022-08-23T09:59:45.324Z,31.59
2022-08-23T10:02:23.980Z,31.27
2022-08-23T10:04:59.396Z,31.65
2022-08-23T10:07:27.794Z,31.10
2022-08-23T10:10:32.581Z,30.90
2022-08-23T10:13:04.237Z,31.27
2022-08-23T10:15:44.200Z,31.25
2022-08-23T10:18:25.977Z,31.21
2022-08-23T10:21:24.441Z,31.20
2022-08-23T10:24:14.377Z,30.76
2022-08-23T10:27:29.160Z,30.98
2022-08-23T10:30:09.103Z,30.89
2022-08-23T10:32:58.175Z,30.58
2022-08-23T10:35:31.782Z,31.20
2022-08-23T10:38:09.952Z,31.25
2022-08-23T10:40:37.446Z,30.33
2022-08-23T10:43:25.825Z,30.79
2022-08-23T10:45:57.137Z,31.10
2022-08-23T10:48:35.741Z,31.83
2022-08-23T10:51:22.582Z,31.48
2022-08-23T10:54:06.156Z,31.56
2022-08-23T10:56:34.328Z,31.51
2022-08-23T10:59:20.245Z,31.07
2022-08-23T11:01:53.252Z,31.21
2022-08-23T11:04:44.576Z,31.77
2022-08-23T11:07:23.689Z,31.39
2022-08-23T11:10:16.378Z,31.77
2022-08-23T11:12:57.592Z,31.54
2022-08-23T11:15:44.586Z,31.96
2022-08-23T11:18:44.174Z,32.13
2022-08-23T11:21:19.555Z,31.83
2022-08-23T11:23:55.937Z,32.13
2022-08-23T11:26:23.050Z,32.05
2022-08-23T11:28:51.496Z,31.78
2022-08-23T11:31:28.172Z,31.77
2022-08-23T11:34:09.794Z,31.86
2022-08-23T11:36:37.193Z,31.74
2022-08-23T11:39:09.684Z,31.80
2022-08-23T11:41:56.776Z,31.87
2022-08-23T11:44:39.801Z,31.20
2022-08-23T11:47:11.456Z,31.84
2022-08-23T11:49:49.804Z,32.31
2022-08-23T11:52:35.273Z,31.65
2022-08-23T11:55:17.653Z,31.45
2022-08-23T11:58:03.403Z,31.55
2022-08-23T12:00:48.948Z,31.52
2022-08-23T12:03:35.571Z,31.76
2022-08-23T12:06:24.906Z,31.57
2022-08-23T12:09:02.104Z,31.31
2022-08-23T12:11:56.705Z,31.25
2022-08-23T12:14:32.773Z,31.25
2022-08-23T12:17:05.226Z,31.20
2022-08-23T12:19:41.007Z,31.10
2022-08-23T12:22:26.941Z,31.10
2022-08-23T12:25:01.122Z,31.61
2022-08-23T12:27:34.521Z,31.22
2022-08-23T12:30:07.436Z,30.98
2022-08-23T12:32:49.244Z,31.19
2022-08-23T12:35:30.278Z,31.73
2022-08-23T12:38:07.820Z,31.72
2022-08-23T12:40:38.761Z,31.27
2022-08-23T12:43:17.465Z,31.21
2022-08-23T12:45:52.839Z,31.61
2022-08-23T12:48:23.910Z,31.39
2022-08-23T12:51:02.539Z,32.09
2022-08-23T12:53:35.608Z,31.60
2022-08-23T12:56:26.945Z,31.97
2022-08-23T12:59:03.401Z,32.05
2022-08-23T13:01:33.920Z,31.95
2022-08-23T13:04:13.103Z,31.76
2022-08-23T13:07:03.134Z,32.14
2022-08-23T13:09:33.414Z,31.74
2022-08-23T13:12:00.730Z,31.44
2022-08-23T13:14:34.414Z,31.34
2022-08-23T13:17:26.077Z,31.35
2022-08-23T13:19:59.237Z,31.89
2022-08-23T13:22:26.145Z,31.36
2022-08-23T13:25:28.785Z,32.01
2022-08-23T13:28:22.897Z,31.38
2022-08-23T13:31:15.091Z,31.67
2022-08-23T13:33:52.885Z,31.89
2022-08-23T13:36:44.711Z,31.52
2022-08-23T13:39:11.566Z,31.75
2022-08-23T13:41:39.290Z,31.68
2022-08-23T13:44:07.863Z,31.73
2022-08-23T13:46:34.834Z,31.44
2022-08-23T13:49:10.926Z,31.36
2022-08-23T13:51:42.061Z,31.40
2022-08-23T13:54:14.302Z,31.97
2022-08-23T13:57:25.609Z,31.46
2022-08-23T14:00:20.110Z,31.79
2022-08-23T14:02:49.684Z,32.14
2022-08-23T14:05:19.218Z,31.88
2022-08-23T14:07:52.920Z,32.07
2022-08-23T14:10:23.265Z,31.64
2022-08-23T14:12:53.006Z,31.80
2022-08-23T14:15:54.009Z,32.18
2022-08-23T14:18:08.705Z,32.07
2022-08-23T14:20:44.202Z,31.66
2022-08-23T14:23:12.853Z,32.14
2022-08-23T14:25:40.041Z,32.17
2022-08-23T14:28:06.740Z,32.15
2022-08-23T14:30:36.737Z,32.12
2022-08-23T14:33:03.898Z,31.71
2022-08-23T14:35:30.948Z,31.43
2022-08-23T14:38:04.494Z,31.67
2022-08-23T14:40:34.381Z,31.69
2022-08-23T14:43:03.866Z,31.68
2022-08-23T14:45:46.205Z,32.42
2022-08-23T14:48:29.950Z,31.75
2022-08-23T14:58:38.755Z,31.79
2022-08-23T15:01:16.112Z,31.90
2022-08-23T15:03:43.375Z,31.41
2022-08-23T15:06:11.551Z,31.91
2022-08-23T15:08:41.884Z,31.32
2022-08-23T15:14:16.839Z,31.78
2022-08-23T15:16:43.697Z,31.77
2022-08-23T15:19:10.500Z,31.40
2022-08-23T15:21:37.399Z,32.04
2022-08-23T15:24:04.424Z,31.61
2022-08-23T15:26:32.077Z,32.30
2022-08-23T15:29:05.490Z,32.21
2022-08-23T15:31:32.473Z,31.68
2022-08-23T15:33:59.148Z,31.61
2022-08-23T15:36:26.270Z,31.92
2022-08-23T15:38:53.008Z,31.65
2022-08-23T15:41:20.242Z,31.86
2022-08-23T15:43:49.989Z,31.69
2022-08-23T15:46:22.373Z,31.90
2022-08-23T15:48:56.796Z,31.41
2022-08-23T15:51:24.466Z,31.70
2022-08-23T15:53:51.412Z,31.72
2022-08-23T15:56:21.068Z,32.07
2022-08-23T15:58:55.268Z,31.99
2022-08-23T16:01:25.881Z,31.64
2022-08-23T16:03:55.505Z,32.02
2022-08-23T16:06:22.738Z,31.49
2022-08-23T16:08:52.721Z,31.14
2022-08-23T16:11:20.925Z,31.11
2022-08-23T16:13:53.678Z,31.56
2022-08-23T16:16:29.409Z,31.20
2022-08-23T16:18:58.501Z,31.68
2022-08-23T16:21:27.927Z,32.06
2022-08-23T16:23:56.677Z,31.98
2022-08-23T16:26:35.324Z,31.16
2022-08-23T16:29:07.750Z,31.72
2022-08-23T16:31:39.047Z,31.73
2022-08-23T16:34:09.052Z,31.84
2022-08-23T16:36:36.508Z,31.28
2022-08-23T16:39:05.206Z,31.57
2022-08-23T16:41:31.988Z,31.10
2022-08-23T16:43:59.914Z,31.23
2022-08-23T16:46:29.073Z,31.16
2022-08-23T16:48:56.022Z,31.23
2022-08-23T16:51:23.813Z,31.62
2022-08-23T16:54:02.294Z,31.39
2022-08-23T16:56:31.214Z,31.03
2022-08-23T16:58:58.557Z,31.27
2022-08-23T17:01:26.012Z,31.77
2022-08-23T17:03:52.985Z,31.25
2022-08-23T17:06:19.916Z,31.26
2022-08-23T17:08:47.319Z,31.21
2022-08-23T17:11:18.078Z,31.31
2022-08-23T17:13:45.291Z,30.78
2022-08-23T17:16:12.345Z,30.71
2022-08-23T17:18:39.269Z,30.83
2022-08-23T17:21:07.155Z,30.93
2022-08-23T17:23:40.328Z,31.04
2022-08-23T17:26:09.529Z,31.38
2022-08-23T17:28:40.198Z,31.22
2022-08-23T17:31:07.473Z,30.84
2022-08-23T17:33:37.577Z,30.46
2022-08-23T17:36:05.290Z,30.74
2022-08-23T17:38:32.697Z,30.76
2022-08-23T17:41:00.323Z,31.09
2022-08-23T17:43:27.305Z,30.65
2022-08-23T17:45:56.518Z,30.66
2022-08-23T17:48:24.119Z,30.88
2022-08-23T17:50:51.161Z,30.84
2022-08-23T17:53:18.863Z,30.99
2022-08-23T17:55:45.952Z,30.78
2022-08-23T17:58:14.248Z,30.93
2022-08-23T18:00:41.150Z,30.82
2022-08-23T18:03:08.214Z,30.90
2022-08-23T18:05:35.566Z,30.90
2022-08-23T18:08:02.488Z,30.95
2022-08-23T18:10:30.121Z,30.87
2022-08-23T18:12:57.545Z,30.78
2022-08-23T18:15:24.945Z,30.76
2022-08-23T18:17:53.910Z,30.77
2022-08-23T18:20:26.487Z,30.73
2022-08-23T18:22:54.836Z,30.72
2022-08-23T18:25:21.861Z,30.75
2022-08-23T18:28:07.295Z,30.56
2022-08-23T18:30:48.970Z,30.48
2022-08-23T18:33:17.494Z,30.37
2022-08-23T18:35:45.680Z,30.62
2022-08-23T18:38:13.667Z,30.45
2022-08-23T18:40:48.900Z,30.42
2022-08-23T18:43:20.775Z,30.38
2022-08-23T18:45:49.297Z,30.35
2022-08-23T18:48:17.243Z,30.28
2022-08-23T18:50:53.604Z,30.12
2022-08-23T18:53:27.058Z,30.16
2022-08-23T18:55:54.344Z,30.16
2022-08-23T18:58:21.764Z,30.08
2022-08-23T19:00:53.523Z,30.11
2022-08-23T19:03:20.790Z,30.06
2022-08-23T19:05:48.266Z,30.03
2022-08-23T19:08:15.449Z,30.03
2022-08-23T19:10:43.075Z,30.05
2022-08-23T19:13:10.994Z,29.97
2022-08-23T19:15:47.275Z,29.89
2022-08-23T19:18:14.671Z,29.81
2022-08-23T19:20:41.709Z,29.77
2022-08-23T19:23:08.721Z,29.79
2022-08-23T19:25:38.620Z,29.76
2022-08-23T19:28:08.346Z,29.62
2022-08-23T19:30:40.604Z,29.63
2022-08-23T19:33:09.154Z,29.63
2022-08-23T19:35:36.450Z,29.48
2022-08-23T19:38:05.599Z,29.62
2022-08-23T19:40:32.747Z,29.59
2022-08-23T19:43:01.077Z,29.44
2022-08-23T19:45:28.186Z,29.51
2022-08-23T19:48:00.482Z,29.38
2022-08-23T19:50:33.793Z,29.45
2022-08-23T19:53:03.558Z,29.39
2022-08-23T19:56:05.212Z,29.45
2022-08-23T19:58:34.992Z,29.40
2022-08-23T20:01:33.749Z,29.21
2022-08-23T20:04:02.076Z,29.36
2022-08-23T20:06:33.569Z,29.30
2022-08-23T20:09:00.593Z,29.30
2022-08-23T20:11:34.238Z,29.28
2022-08-23T20:14:01.802Z,29.34
2022-08-23T20:16:35.277Z,29.39
2022-08-23T20:19:03.908Z,29.30
2022-08-23T20:21:30.663Z,29.28
2022-08-23T20:24:01.297Z,29.31
2022-08-23T20:26:33.966Z,29.19
2022-08-23T20:29:06.490Z,29.20
2022-08-23T20:31:48.697Z,29.04
2022-08-23T20:34:15.886Z,29.07
2022-08-23T20:36:42.981Z,29.01
2022-08-23T20:39:09.872Z,28.74
2022-08-23T20:41:39.883Z,28.68
2022-08-23T20:44:08.816Z,28.85
2022-08-23T20:46:35.940Z,28.83
2022-08-23T20:49:03.519Z,28.89
2022-08-23T20:51:30.932Z,28.91
2022-08-23T20:54:08.573Z,28.77
2022-08-23T20:56:37.167Z,28.71
2022-08-23T20:59:06.418Z,28.72
2022-08-23T21:01:36.289Z,28.67
2022-08-23T21:04:03.623Z,28.65
2022-08-23T21:06:40.618Z,28.69
2022-08-23T21:09:30.411Z,28.66
2022-08-23T21:11:58.450Z,28.58
2022-08-23T21:14:25.813Z,28.42
2022-08-23T21:16:53.055Z,28.54
2022-08-23T21:19:20.740Z,28.56
2022-08-23T21:22:00.224Z,28.44
2022-08-23T21:24:34.442Z,28.27
2022-08-23T21:27:02.214Z,28.47
2022-08-23T21:29:36.286Z,28.35
2022-08-23T21:32:03.907Z,28.35
2022-08-23T21:34:31.822Z,28.33
2022-08-23T21:36:58.861Z,28.22
2022-08-23T21:39:30.493Z,28.33
2022-08-23T21:41:58.315Z,28.27
2022-08-23T21:44:25.755Z,28.34
2022-08-23T21:46:52.793Z,28.15
2022-08-23T21:49:21.007Z,28.17
2022-08-23T21:51:50.620Z,28.02
2022-08-23T21:54:18.401Z,27.98
2022-08-23T21:56:45.987Z,27.91
2022-08-23T21:59:16.680Z,27.99
2022-08-23T22:01:44.121Z,27.92
2022-08-23T22:04:13.143Z,27.97
2022-08-23T22:06:43.751Z,28.01
2022-08-23T22:09:17.793Z,27.83
2022-08-23T22:11:46.286Z,27.76
2022-08-23T22:14:24.573Z,27.79
2022-08-23T22:17:02.026Z,27.80
2022-08-23T22:19:29.217Z,27.81
2022-08-23T22:21:56.868Z,27.72
2022-08-23T22:24:26.181Z,27.55
2022-08-23T22:26:53.802Z,27.69
2022-08-23T22:29:20.447Z,27.63
2022-08-23T22:31:48.367Z,27.48
2022-08-23T22:34:15.232Z,27.61
2022-08-23T22:36:42.082Z,27.65
2022-08-23T22:39:08.997Z,27.69
2022-08-23T22:41:36.959Z,27.69
2022-08-23T22:44:04.721Z,27.71
2022-08-23T22:46:33.596Z,27.74
2022-08-23T22:49:00.996Z,27.71
2022-08-23T22:51:32.750Z,27.69
2022-08-23T22:54:02.012Z,27.58
2022-08-23T22:56:44.206Z,27.60
2022-08-23T22:59:11.804Z,27.46
2022-08-23T23:01:44.640Z,27.07
2022-08-23T23:04:13.213Z,27.25
2022-08-23T23:06:41.021Z,27.40
2022-08-23T23:09:09.531Z,27.48
2022-08-23T23:11:36.429Z,27.45
2022-08-23T23:14:05.239Z,27.41
2022-08-23T23:16:32.936Z,27.50
2022-08-23T23:19:18.771Z,27.44
2022-08-23T23:21:48.298Z,27.45
2022-08-23T23:24:18.436Z,27.42
2022-08-23T23:26:47.602Z,27.31
2022-08-23T23:29:14.895Z,27.40
2022-08-23T23:31:41.730Z,27.27
2022-08-23T23:34:09.086Z,27.31
2022-08-23T23:36:36.016Z,27.31
2022-08-23T23:39:04.429Z,27.33
2022-08-23T23:41:31.733Z,27.24
2022-08-23T23:43:58.709Z,27.24
2022-08-23T23:46:25.982Z,27.20
2022-08-23T23:48:52.950Z,27.24
2022-08-23T23:51:26.908Z,27.27
2022-08-23T23:53:53.866Z,27.23
2022-08-23T23:56:23.370Z,27.24
2022-08-23T23:58:52.126Z,27.22
